PWSweather.com
Personal Weather Stations
Station Observations

ChardChardGB

Lat: 50.877408, Lon: -2.94964741

Elevation: 341

Station Type: WS3083

http://www.merriott-astro.co.uk/weather/index.htm

Latest ConditionsUpdated 11:00:13 AM GMT Thursday, Nov 23, 2017
Currently Today's Max Today's Min Today's Average
Temperature 52.2°F11.2°C 53.6°F12.0°C 44.2°F6.8°C 49.6°F9.8°C
Dew Point 36.0°F2.2°C 48.5°F9.2°C 35.0°F1.7°C 41.9°F5.5°C
Winds 7.6 mph SSW12.2 kmh SSW 13.3 mph SW21.4 kmh SW - 7.1 mph 11.4 kmh
Wind Gusts 9.8 mph15.8 kmh 20.6 mph33.2 kmh - -
Humidity 54% 84% 54% 75%
Pressure 29.26 in990.9 mb 29.26 in990.9 mb 28.81 in975.6 mb -
Precipitation - 0.15 in3.8 mm - -
Hour Temp Dew Point Humidity Winds Wind Gusts Pressure Precip Precip Rate Daily Precip Total
11:00 AM 52.2°F11.2°C 36.0°F2.2°C 54% 7.6 mph SSW12.2 kmh SSW 9.8 mph15.8 kmh 29.26 in990.9 mb 0.00 in0.0 mm 0.00 in0.0 mm 0.15 in3.8 mm
10:50 AM 51.3°F10.7°C 37.0°F2.8°C 58% 7.9 mph SW12.7 kmh SW 12.1 mph19.5 kmh 29.26 in990.9 mb 0.00 in0.0 mm 0.00 in0.0 mm 0.15 in3.8 mm
10:40 AM 49.3°F9.6°C 35.6°F2.0°C 59% 8.5 mph S13.7 kmh S 15.9 mph25.6 kmh 29.25 in990.5 mb 0.00 in0.0 mm 0.00 in0.0 mm 0.15 in3.8 mm
10:30 AM 49.1°F9.5°C 35.8°F2.1°C 60% 7.2 mph SW11.6 kmh SW 13.0 mph20.9 kmh 29.24 in990.2 mb 0.00 in0.0 mm 0.00 in0.0 mm 0.15 in3.8 mm
10:20 AM 48.6°F9.2°C 35.3°F1.8°C 60% 9.1 mph S14.6 kmh S 14.5 mph23.3 kmh 29.23 in989.8 mb 0.00 in0.0 mm 0.00 in0.0 mm 0.15 in3.8 mm
10:10 AM 48.2°F9.0°C 35.4°F1.9°C 61% 8.1 mph SW13.0 kmh SW 13.6 mph21.9 kmh 29.23 in989.8 mb 0.00 in0.0 mm 0.00 in0.0 mm 0.15 in3.8 mm
10:00 AM 47.7°F8.7°C 35.3°F1.8°C 62% 7.0 mph S11.3 kmh S 11.4 mph18.3 kmh 29.23 in989.8 mb 0.00 in0.0 mm 0.00 in0.0 mm 0.15 in3.8 mm
09:50 AM 47.3°F8.5°C 35.0°F1.7°C 62% 6.3 mph SSE10.1 kmh SSE 9.2 mph14.8 kmh 29.22 in989.5 mb 0.00 in0.0 mm 0.00 in0.0 mm 0.15 in3.8 mm
09:40 AM 46.9°F8.3°C 35.0°F1.7°C 63% 5.3 mph SW8.5 kmh SW 9.2 mph14.8 kmh 29.21 in989.2 mb 0.00 in0.0 mm 0.00 in0.0 mm 0.15 in3.8 mm
09:30 AM 46.6°F8.1°C 35.1°F1.7°C 64% 6.4 mph SSW10.3 kmh SSW 8.3 mph13.4 kmh 29.20 in988.8 mb 0.00 in0.0 mm 0.00 in0.0 mm 0.15 in3.8 mm
09:20 AM 46.2°F7.9°C 35.1°F1.7°C 65% 6.2 mph SSW10.0 kmh SSW 8.3 mph13.4 kmh 29.19 in988.5 mb 0.00 in0.0 mm 0.00 in0.0 mm 0.15 in3.8 mm
09:10 AM 45.9°F7.7°C 35.2°F1.8°C 66% 5.1 mph SSW8.2 kmh SSW 7.6 mph12.2 kmh 29.19 in988.5 mb 0.00 in0.0 mm 0.00 in0.0 mm 0.15 in3.8 mm
09:00 AM 45.9°F7.7°C 35.2°F1.8°C 66% 6.5 mph SW10.5 kmh SW 9.8 mph15.8 kmh 29.18 in988.1 mb 0.00 in0.0 mm 0.00 in0.0 mm 0.15 in3.8 mm
08:50 AM 45.5°F7.5°C 35.2°F1.8°C 67% 6.0 mph SW9.7 kmh SW 9.8 mph15.8 kmh 29.17 in987.8 mb 0.00 in0.0 mm 0.00 in0.0 mm 0.15 in3.8 mm
08:40 AM 45.0°F7.2°C 36.8°F2.7°C 73% 5.2 mph S8.4 kmh S 7.6 mph12.2 kmh 29.18 in988.1 mb 0.00 in0.0 mm 0.00 in0.0 mm 0.15 in3.8 mm
08:30 AM 44.6°F7.0°C 37.2°F2.9°C 75% 4.6 mph SSW7.4 kmh SSW 7.6 mph12.2 kmh 29.17 in987.8 mb 0.00 in0.0 mm 0.00 in0.0 mm 0.15 in3.8 mm
08:20 AM 44.4°F6.9°C 36.7°F2.6°C 74% 5.4 mph S8.7 kmh S 8.3 mph13.4 kmh 29.16 in987.5 mb 0.00 in0.0 mm 0.00 in0.0 mm 0.15 in3.8 mm
08:10 AM 44.2°F6.8°C 36.1°F2.3°C 73% 4.1 mph SSW6.6 kmh SSW 8.3 mph13.4 kmh 29.15 in987.1 mb 0.00 in0.0 mm 0.00 in0.0 mm 0.15 in3.8 mm
08:00 AM 44.2°F6.8°C 36.1°F2.3°C 73% 4.0 mph SW6.4 kmh SW 6.0 mph9.7 kmh 29.15 in987.1 mb 0.00 in0.0 mm 0.00 in0.0 mm 0.15 in3.8 mm
07:50 AM 44.2°F6.8°C 36.5°F2.5°C 74% 4.1 mph SW6.6 kmh SW 6.0 mph9.7 kmh 29.14 in986.8 mb 0.00 in0.0 mm 0.00 in0.0 mm 0.15 in3.8 mm
07:40 AM 44.2°F6.8°C 36.5°F2.5°C 74% 4.8 mph WNW7.7 kmh WNW 7.6 mph12.2 kmh 29.13 in986.5 mb 0.00 in0.0 mm 0.00 in0.0 mm 0.15 in3.8 mm
07:30 AM 44.2°F6.8°C 36.8°F2.7°C 75% 3.7 mph WNW6.0 kmh WNW 6.0 mph9.7 kmh 29.11 in985.8 mb 0.00 in0.0 mm 0.00 in0.0 mm 0.15 in3.8 mm
07:20 AM 44.6°F7.0°C 37.5°F3.1°C 76% 3.7 mph WNW6.0 kmh WNW 6.0 mph9.7 kmh 29.10 in985.4 mb 0.00 in0.0 mm 0.00 in0.0 mm 0.15 in3.8 mm
07:10 AM 44.8°F7.1°C 38.0°F3.3°C 77% 3.6 mph SSW5.8 kmh SSW 4.5 mph7.2 kmh 29.09 in985.1 mb 0.00 in0.0 mm 0.00 in0.0 mm 0.15 in3.8 mm
07:00 AM 45.0°F7.2°C 38.2°F3.4°C 77% 3.5 mph SW5.6 kmh SW 5.4 mph8.7 kmh 29.09 in985.1 mb 0.00 in0.0 mm 0.00 in0.0 mm 0.15 in3.8 mm
06:50 AM 45.3°F7.4°C 38.5°F3.6°C 77% 4.8 mph S7.7 kmh S 7.6 mph12.2 kmh 29.07 in984.4 mb 0.00 in0.0 mm 0.00 in0.0 mm 0.15 in3.8 mm
06:40 AM 45.5°F7.5°C 37.0°F2.8°C 72% 6.7 mph NNE10.8 kmh NNE 10.7 mph17.2 kmh 29.06 in984.1 mb 0.00 in0.0 mm 0.00 in0.0 mm 0.15 in3.8 mm
06:30 AM 45.7°F7.6°C 37.2°F2.9°C 72% 6.0 mph NNW9.7 kmh NNW 9.2 mph14.8 kmh 29.05 in983.7 mb 0.00 in0.0 mm 0.00 in0.0 mm 0.15 in3.8 mm
06:20 AM 46.0°F7.8°C 37.5°F3.1°C 72% 5.3 mph NW8.5 kmh NW 9.2 mph14.8 kmh 29.05 in983.7 mb 0.00 in0.0 mm 0.00 in0.0 mm 0.15 in3.8 mm
06:10 AM 46.6°F8.1°C 38.0°F3.3°C 72% 7.7 mph NW12.4 kmh NW 10.7 mph17.2 kmh 29.03 in983.1 mb 0.00 in0.0 mm 0.00 in0.0 mm 0.15 in3.8 mm
06:00 AM 46.8°F8.2°C 38.6°F3.7°C 73% 8.4 mph NW13.5 kmh NW 10.7 mph17.2 kmh 29.03 in983.1 mb 0.00 in0.0 mm 0.00 in0.0 mm 0.15 in3.8 mm
05:50 AM 47.3°F8.5°C 39.4°F4.1°C 74% 11.5 mph NNW18.5 kmh NNW 15.9 mph25.6 kmh 29.02 in982.7 mb 0.00 in0.0 mm 0.00 in0.0 mm 0.15 in3.8 mm
05:40 AM 48.4°F9.1°C 40.8°F4.9°C 75% 10.7 mph NW17.2 kmh NW 15.2 mph24.5 kmh 29.02 in982.7 mb 0.00 in0.0 mm 0.00 in0.0 mm 0.15 in3.8 mm
05:30 AM 48.7°F9.3°C 40.8°F4.9°C 74% 11.0 mph WNW17.7 kmh WNW 15.9 mph25.6 kmh 29.00 in982.1 mb 0.01 in0.3 mm 0.00 in0.0 mm 0.15 in3.8 mm
05:20 AM 49.1°F9.5°C 41.2°F5.1°C 74% 10.5 mph NW16.9 kmh NW 15.2 mph24.5 kmh 28.98 in981.4 mb 0.01 in0.3 mm 0.00 in0.0 mm 0.15 in3.8 mm
05:10 AM 49.6°F9.8°C 42.0°F5.6°C 75% 9.2 mph NW14.8 kmh NW 11.4 mph18.3 kmh 28.98 in981.4 mb 0.01 in0.3 mm 0.00 in0.0 mm 0.15 in3.8 mm
05:00 AM 50.4°F10.2°C 42.7°F5.9°C 75% 11.4 mph NW18.3 kmh NW 15.2 mph24.5 kmh 28.96 in980.7 mb 0.01 in0.3 mm 0.00 in0.0 mm 0.15 in3.8 mm
04:50 AM 51.6°F10.9°C 44.3°F6.8°C 76% 11.0 mph NW17.7 kmh NW 15.2 mph24.5 kmh 28.95 in980.4 mb 0.01 in0.3 mm 0.00 in0.0 mm 0.15 in3.8 mm
04:40 AM 53.1°F11.7°C 46.7°F8.2°C 79% 8.4 mph W13.5 kmh W 15.2 mph24.5 kmh 28.93 in979.7 mb 0.01 in0.3 mm 0.06 in1.5 mm 0.15 in3.8 mm
04:30 AM 53.2°F11.8°C 46.9°F8.3°C 79% 8.1 mph SSW13.0 kmh SSW 10.7 mph17.2 kmh 28.91 in979.0 mb 0.00 in0.0 mm 0.00 in0.0 mm 0.14 in3.6 mm
04:20 AM 53.4°F11.9°C 46.7°F8.2°C 78% 6.8 mph SW10.9 kmh SW 12.1 mph19.5 kmh 28.90 in978.7 mb 0.00 in0.0 mm 0.00 in0.0 mm 0.14 in3.6 mm
04:10 AM 53.6°F12.0°C 46.6°F8.1°C 77% 8.5 mph SW13.7 kmh SW 10.7 mph17.2 kmh 28.89 in978.3 mb 0.00 in0.0 mm 0.00 in0.0 mm 0.14 in3.6 mm
04:00 AM 53.6°F12.0°C 47.3°F8.5°C 79% 10.3 mph SW16.6 kmh SW 16.8 mph27.0 kmh 28.88 in978.0 mb 0.00 in0.0 mm 0.00 in0.0 mm 0.14 in3.6 mm
03:50 AM 53.4°F11.9°C 47.7°F8.7°C 81% 7.7 mph SW12.4 kmh SW 13.6 mph21.9 kmh 28.88 in978.0 mb 0.00 in0.0 mm 0.00 in0.0 mm 0.14 in3.6 mm
03:40 AM 53.4°F11.9°C 47.7°F8.7°C 81% 6.6 mph S10.6 kmh S 9.8 mph15.8 kmh 28.87 in977.7 mb 0.00 in0.0 mm 0.00 in0.0 mm 0.14 in3.6 mm
03:30 AM 53.2°F11.8°C 47.6°F8.7°C 81% 6.3 mph SSW10.1 kmh SSW 9.8 mph15.8 kmh 28.86 in977.3 mb 0.00 in0.0 mm 0.00 in0.0 mm 0.14 in3.6 mm
03:20 AM 53.2°F11.8°C 47.6°F8.7°C 81% 7.8 mph SW12.6 kmh SW 13.0 mph20.9 kmh 28.85 in977.0 mb 0.00 in0.0 mm 0.00 in0.0 mm 0.14 in3.6 mm
03:10 AM 53.1°F11.7°C 47.4°F8.6°C 81% 8.2 mph SW13.2 kmh SW 12.1 mph19.5 kmh 28.84 in976.6 mb 0.00 in0.0 mm 0.00 in0.0 mm 0.14 in3.6 mm
03:00 AM 53.1°F11.7°C 47.7°F8.7°C 82% 8.5 mph SW13.7 kmh SW 13.0 mph20.9 kmh 28.84 in976.6 mb 0.00 in0.0 mm 0.00 in0.0 mm 0.14 in3.6 mm
02:50 AM 52.9°F11.6°C 47.9°F8.8°C 83% 8.6 mph SSW13.8 kmh SSW 10.7 mph17.2 kmh 28.84 in976.6 mb 0.00 in0.0 mm 0.00 in0.0 mm 0.14 in3.6 mm
02:40 AM 52.9°F11.6°C 48.2°F9.0°C 84% 7.4 mph S11.9 kmh S 15.2 mph24.5 kmh 28.83 in976.3 mb 0.00 in0.0 mm 0.00 in0.0 mm 0.14 in3.6 mm
02:30 AM 52.5°F11.4°C 47.8°F8.8°C 84% 7.3 mph SSW11.7 kmh SSW 9.2 mph14.8 kmh 28.83 in976.3 mb 0.00 in0.0 mm 0.00 in0.0 mm 0.14 in3.6 mm
02:20 AM 52.3°F11.3°C 47.7°F8.7°C 84% 4.6 mph SW7.4 kmh SW 6.9 mph11.1 kmh 28.83 in976.3 mb 0.00 in0.0 mm 0.00 in0.0 mm 0.14 in3.6 mm
02:10 AM 52.3°F11.3°C 47.7°F8.7°C 84% 5.6 mph SSW9.0 kmh SSW 6.9 mph11.1 kmh 28.82 in976.0 mb 0.00 in0.0 mm 0.00 in0.0 mm 0.14 in3.6 mm
02:00 AM 52.7°F11.5°C 48.0°F8.9°C 84% 5.9 mph SSW9.5 kmh SSW 7.6 mph12.2 kmh 28.82 in976.0 mb 0.00 in0.0 mm 0.00 in0.0 mm 0.14 in3.6 mm
01:50 AM 52.9°F11.6°C 48.2°F9.0°C 84% 6.4 mph SW10.3 kmh SW 8.3 mph13.4 kmh 28.82 in976.0 mb 0.00 in0.0 mm 0.00 in0.0 mm 0.14 in3.6 mm
01:40 AM 52.9°F11.6°C 48.2°F9.0°C 84% 5.9 mph S9.5 kmh S 8.3 mph13.4 kmh 28.82 in976.0 mb 0.00 in0.0 mm 0.00 in0.0 mm 0.14 in3.6 mm
01:30 AM 53.1°F11.7°C 48.4°F9.1°C 84% 6.3 mph SSW10.1 kmh SSW 7.6 mph12.2 kmh 28.81 in975.6 mb 0.01 in0.3 mm 0.00 in0.0 mm 0.14 in3.6 mm
01:20 AM 53.1°F11.7°C 48.4°F9.1°C 84% 6.0 mph SSW9.7 kmh SSW 8.3 mph13.4 kmh 28.81 in975.6 mb 0.04 in1.0 mm 0.00 in0.0 mm 0.14 in3.6 mm
01:10 AM 53.2°F11.8°C 48.5°F9.2°C 84% 6.9 mph S11.1 kmh S 9.8 mph15.8 kmh 28.82 in976.0 mb 0.07 in1.8 mm 0.00 in0.0 mm 0.14 in3.6 mm
01:00 AM 53.2°F11.8°C 48.5°F9.2°C 84% 5.6 mph SSW9.0 kmh SSW 9.8 mph15.8 kmh 28.82 in976.0 mb 0.14 in3.6 mm 0.00 in0.0 mm 0.14 in3.6 mm
12:50 AM 53.2°F11.8°C 48.5°F9.2°C 84% 4.2 mph WSW6.8 kmh WSW 8.3 mph13.4 kmh 28.82 in976.0 mb 0.14 in3.6 mm 0.00 in0.0 mm 0.14 in3.6 mm
12:40 AM 53.2°F11.8°C 48.5°F9.2°C 84% 5.5 mph S8.9 kmh S 9.8 mph15.8 kmh 28.82 in976.0 mb 0.15 in3.8 mm 0.06 in1.5 mm 0.14 in3.6 mm
12:30 AM 53.2°F11.8°C 48.5°F9.2°C 84% 8.8 mph S14.2 kmh S 13.6 mph21.9 kmh 28.82 in976.0 mb 0.14 in3.6 mm 0.00 in0.0 mm 0.13 in3.3 mm
12:20 AM 53.1°F11.7°C 48.4°F9.1°C 84% 12.5 mph SSW20.1 kmh SSW 19.0 mph30.6 kmh 28.81 in975.6 mb 0.14 in3.6 mm 0.00 in0.0 mm 0.11 in2.8 mm
12:10 AM 53.1°F11.7°C 48.4°F9.1°C 84% 12.9 mph SW20.8 kmh SW 19.0 mph30.6 kmh 28.82 in976.0 mb 0.15 in3.8 mm 0.36 in9.1 mm 0.07 in1.8 mm
12:00 AM 53.1°F11.7°C 48.4°F9.1°C 84% 13.3 mph SW21.4 kmh SW 20.6 mph33.2 kmh 28.82 in976.0 mb 0.09 in2.3 mm 0.00 in0.0 mm 0.09 in2.3 mm